Saturday, October 25, 2014
22:57 UTC
  |  Log In   |  Register Free
Airport Search:

Lonesome Pine Airport
(KLNP)

Lonesome Pine Airport Diagram
No Airport Diagram Available

FAA data valid effective September 18, 2014 - November 13, 2014 (unless otherwise noted).

 
 
 
 
 
 
 
 
 
 
 
 
 
 

Current Aviation Weather for Lonesome Pine Airport (KLNP)

The most recent METAR observation for KLNP was updated at: 2213
METAR Summary (Translated METAR)
KLNP
252155Z AUTO 23007KT 10SM OVC025 16/07 A3002 RMK AO2
KVJI
252155Z AUTO 28006KT 10SM BKN043 BKN049 18/09 A3001 RMK AO2 T01840085
(29.9 nm SE from KLNP)
KTRI
252153Z 23008KT 10SM SCT043 BKN070 19/09 A3001 RMK AO2 SLP149 T01890094
(31.3 nm SE from KLNP)
TAF Summary (Translated TAF)
KTRI
(31.3 nm SE from KLNP)
251723Z 2518/2618 25003KT P6SM SKC FM252100 24006KT P6SM SCT050 TEMPO 2521/2524 BKN050 FM260200 00000KT P6SM FEW060 FM260800 00000KT 4SM BR SCT004 BKN015 FM261500 VRB03KT P6SM FEW020
  Airport Weather Conditions for KLNP

 Current Weather at LNP
61° F
Overcast
Southwest winds at 8.1 mph
LNP NOAA Radar

Pressure: 30.02 in
Humidity: 55%
Wind: Southwest at 8.1 MPH (7 KT)
Dew Point: 44.6°F
Visibility: 10.00 mi


Airport Weather Forecast for KLNP

Translated METAR and TAF for KLNP
Translated METAR for KLNP (2252 UTC 25 October 2014)
found at http://aviationweather.gov/adds/metars/
 
METAR text: KLNP 252235Z AUTO 23007KT 10SM BKN026 OVC032 16/07 A3003 RMK AO2
Conditions at: KLNP (WISE/LONESOME PI, VA, US) observed 2235 UTC 25 October 2014
Temperature: 16.0°C (61°F)
Dewpoint: 7.0°C (45°F) [RH = 55%]
Pressure (altimeter): 30.03 inches Hg (1017.0 mb)
Winds: from the SW (230 degrees) at 8 MPH (7 knots; 3.6 m/s)
Visibility: 10 or more miles (16+ km)
Ceiling: 2600 feet AGL
Clouds: broken clouds at 2600 feet AGL
overcast cloud deck at 3200 feet AGL
Weather: automated observation with no human augmentation;
there may or may not be significant weather present at this time
Translated TAF for KLNP

There is no translated TAF available for this airport

Find All Airport Services Find A Hotel Find A Rental Car Find A Golf Course Find A Restaurant $100 Hamburger



FBO's on the Field
FBO Company Facility Photos Services Transportation Aviation Fuel Prices: Prices include tax
Catering Weather Repair Courtesy Rental Type 100LL JetA JetA+ MOGAS 8087
 
Lonesome Pine Airport

This FBO has not yet been rated
FS:Shell
Last Updated: Sep-24
Login to update fuel prices
SS:
Contact Lonesome Pine AirportMore FBO Information
 
Add another FBO Facility Photos Catering Weather Repair Courtesy Rental Type 100LL JetA JetA+ MOGAS 8087
Services Transportation Aviation Fuel Prices: Prices include tax


model-print
model-print
model-print
model-print